createdAt,value
2022-12-08T00:01:00.033Z,999.31
2022-12-08T00:01:59.802Z,999.29
2022-12-08T00:02:59.801Z,999.34
2022-12-08T00:03:59.632Z,999.39
2022-12-08T00:04:59.634Z,999.34
2022-12-08T00:05:59.624Z,999.34
2022-12-08T00:06:59.626Z,999.29
2022-12-08T00:07:59.665Z,999.24
2022-12-08T00:09:00.291Z,999.25
2022-12-08T00:09:59.593Z,999.25
2022-12-08T00:10:59.592Z,999.24
2022-12-08T00:11:59.721Z,999.27
2022-12-08T00:13:00.180Z,999.23
2022-12-08T00:14:00.176Z,999.12
2022-12-08T00:15:00.424Z,999.17
2022-12-08T00:15:59.559Z,999.15
2022-12-08T00:16:59.587Z,999.19
2022-12-08T00:17:59.760Z,999.12
2022-12-08T00:18:59.552Z,999.10
2022-12-08T00:19:59.541Z,999.03
2022-12-08T00:20:59.527Z,999.08
2022-12-08T00:21:59.528Z,999.08
2022-12-08T00:22:59.601Z,999.00
2022-12-08T00:23:59.558Z,999.04
2022-12-08T00:24:59.526Z,998.96
2022-12-08T00:25:59.506Z,998.97
2022-12-08T00:26:59.505Z,999.01
2022-12-08T00:27:59.512Z,998.95
2022-12-08T00:28:59.552Z,998.96
2022-12-08T00:29:59.636Z,998.91
2022-12-08T00:30:59.645Z,998.93
2022-12-08T00:31:59.767Z,998.96
2022-12-08T00:32:59.607Z,998.97
2022-12-08T00:33:59.685Z,998.95
2022-12-08T00:36:26.316Z,998.87
2022-12-08T00:37:25.452Z,998.94
2022-12-08T00:38:25.697Z,998.88
2022-12-08T00:39:26.324Z,998.87
2022-12-08T00:40:25.474Z,998.90
2022-12-08T00:41:25.868Z,998.89
2022-12-08T00:42:25.966Z,998.86
2022-12-08T00:43:25.806Z,998.80
2022-12-08T00:44:26.333Z,998.86
2022-12-08T00:45:25.503Z,998.80
2022-12-08T00:46:25.934Z,998.79
2022-12-08T00:47:25.349Z,998.76
2022-12-08T00:48:25.437Z,998.72
2022-12-08T00:49:26.214Z,998.77
2022-12-08T00:50:26.282Z,998.70
2022-12-08T00:51:25.333Z,998.77
2022-12-08T00:52:26.350Z,998.76
2022-12-08T00:53:26.533Z,998.81
2022-12-08T00:54:25.337Z,998.74
2022-12-08T00:55:25.292Z,998.74
2022-12-08T00:56:25.333Z,998.74
2022-12-08T00:57:25.371Z,998.67
2022-12-08T00:58:25.423Z,998.72
2022-12-08T00:59:25.461Z,998.72
2022-12-08T01:00:25.240Z,998.74
2022-12-08T01:01:25.600Z,998.71
2022-12-08T01:02:25.620Z,998.70
2022-12-08T01:03:25.244Z,998.65
2022-12-08T01:04:25.237Z,998.63
2022-12-08T01:05:25.769Z,998.63
2022-12-08T01:06:25.380Z,998.65
2022-12-08T01:07:25.200Z,998.64
2022-12-08T01:08:25.310Z,998.68
2022-12-08T01:09:25.250Z,998.60
2022-12-08T01:10:25.180Z,998.61
2022-12-08T01:11:25.198Z,998.56
2022-12-08T01:12:25.160Z,998.61
2022-12-08T01:13:25.165Z,998.63
2022-12-08T01:14:25.171Z,998.62
2022-12-08T01:15:25.237Z,998.64
2022-12-08T01:16:25.167Z,998.65
2022-12-08T01:17:25.147Z,998.72
2022-12-08T01:18:25.280Z,998.69
2022-12-08T01:19:25.146Z,998.68
2022-12-08T01:20:25.151Z,998.68
2022-12-08T01:21:25.117Z,998.72
2022-12-08T01:22:25.095Z,998.72
2022-12-08T01:23:25.143Z,998.71
2022-12-08T01:24:25.096Z,998.67
2022-12-08T01:25:25.117Z,998.65
2022-12-08T01:26:25.074Z,998.72
2022-12-08T01:27:25.073Z,998.64
2022-12-08T01:28:25.066Z,998.65
2022-12-08T01:29:25.143Z,998.62
2022-12-08T01:30:25.108Z,998.62
2022-12-08T01:31:25.527Z,998.67
2022-12-08T01:32:25.453Z,998.68
2022-12-08T01:33:25.033Z,998.66
2022-12-08T01:34:25.035Z,998.69
2022-12-08T01:35:25.047Z,998.69
2022-12-08T01:36:25.130Z,998.68
2022-12-08T01:37:25.010Z,998.67
2022-12-08T01:38:25.233Z,998.72
2022-12-08T01:39:25.020Z,998.74
2022-12-08T01:40:24.981Z,998.65
2022-12-08T01:41:24.984Z,998.77
2022-12-08T01:42:24.979Z,998.66
2022-12-08T01:43:24.974Z,998.74
2022-12-08T01:44:25.049Z,998.73
2022-12-08T01:45:24.959Z,998.70
2022-12-08T01:46:25.072Z,998.69
2022-12-08T01:47:24.990Z,998.72
2022-12-08T01:48:25.046Z,998.68
2022-12-08T01:49:25.026Z,998.77
2022-12-08T01:50:25.697Z,998.74
2022-12-08T01:51:25.066Z,998.77
2022-12-08T01:52:24.919Z,998.75
2022-12-08T01:53:25.807Z,998.71
2022-12-08T01:54:24.907Z,998.76
2022-12-08T01:55:24.968Z,998.66
2022-12-08T01:56:25.797Z,998.67
2022-12-08T01:57:25.007Z,998.74
2022-12-08T01:58:24.876Z,998.76
2022-12-08T01:59:25.195Z,998.67
2022-12-08T02:00:25.816Z,998.68
2022-12-08T02:01:25.879Z,998.63
2022-12-08T02:02:25.811Z,998.66
2022-12-08T02:03:25.682Z,998.63
2022-12-08T02:04:25.842Z,998.62
2022-12-08T02:05:25.757Z,998.56
2022-12-08T02:06:24.895Z,998.61
2022-12-08T02:07:25.806Z,998.58
2022-12-08T02:08:25.753Z,998.60
2022-12-08T02:09:25.032Z,998.58
2022-12-08T02:10:24.813Z,998.52
2022-12-08T02:11:24.826Z,998.55
2022-12-08T02:12:24.787Z,998.50
2022-12-08T02:13:24.798Z,998.49
2022-12-08T02:14:24.841Z,998.45
2022-12-08T02:15:24.761Z,998.48
2022-12-08T02:16:25.009Z,998.50
2022-12-08T02:17:24.991Z,998.47
2022-12-08T02:18:24.750Z,998.47
2022-12-08T02:19:32.180Z,998.47
2022-12-08T02:20:24.755Z,998.42
2022-12-08T02:21:24.741Z,998.47
2022-12-08T02:22:24.770Z,998.48
2022-12-08T02:23:24.818Z,998.48
2022-12-08T02:24:24.718Z,998.42
2022-12-08T02:25:24.709Z,998.36
2022-12-08T02:26:24.688Z,998.39
2022-12-08T02:27:24.689Z,998.41
2022-12-08T02:28:24.732Z,998.39
2022-12-08T02:29:24.857Z,998.33
2022-12-08T02:30:24.687Z,998.36
2022-12-08T02:31:24.962Z,998.42
2022-12-08T02:32:24.906Z,998.39
2022-12-08T02:33:24.907Z,998.42
2022-12-08T02:34:24.637Z,998.41
2022-12-08T02:35:24.655Z,998.32
2022-12-08T02:36:24.634Z,998.33
2022-12-08T02:37:24.965Z,998.28
2022-12-08T02:38:24.976Z,998.24
2022-12-08T02:39:24.633Z,998.26
2022-12-08T02:40:24.694Z,998.20
2022-12-08T02:41:25.037Z,998.14
2022-12-08T02:42:24.637Z,998.17
2022-12-08T02:43:24.984Z,998.21
2022-12-08T02:44:24.643Z,998.21
2022-12-08T02:45:24.792Z,998.17
2022-12-08T02:46:25.141Z,998.11
2022-12-08T02:47:25.113Z,998.11
2022-12-08T02:48:25.119Z,998.09
2022-12-08T02:49:24.761Z,998.15
2022-12-08T02:50:24.573Z,998.13
2022-12-08T02:51:24.532Z,998.14
2022-12-08T02:52:24.529Z,998.15
2022-12-08T02:53:24.622Z,998.09
2022-12-08T02:54:24.512Z,998.10
2022-12-08T02:55:24.999Z,998.12
2022-12-08T02:56:24.514Z,998.02
2022-12-08T02:57:24.503Z,998.07
2022-12-08T02:58:24.500Z,998.03
2022-12-08T02:59:24.479Z,998.02
2022-12-08T03:00:24.498Z,997.98
2022-12-08T03:01:24.537Z,998.01
2022-12-08T03:02:24.524Z,998.00
2022-12-08T03:03:24.450Z,998.00
2022-12-08T03:04:25.028Z,997.95
2022-12-08T03:05:24.457Z,997.93
2022-12-08T03:06:24.459Z,997.88
2022-12-08T03:07:24.426Z,997.87
2022-12-08T03:08:24.952Z,997.89
2022-12-08T03:09:25.177Z,997.85
2022-12-08T03:10:25.196Z,997.84
2022-12-08T03:11:24.405Z,997.87
2022-12-08T03:12:24.396Z,997.82
2022-12-08T03:13:24.816Z,997.84
2022-12-08T03:14:24.424Z,997.84
2022-12-08T03:15:25.347Z,997.77
2022-12-08T03:16:24.449Z,997.83
2022-12-08T03:17:24.367Z,997.80
2022-12-08T03:18:24.373Z,997.77
2022-12-08T03:19:24.535Z,997.77
2022-12-08T03:20:24.366Z,997.74
2022-12-08T03:21:24.334Z,997.78
2022-12-08T03:22:24.430Z,997.73
2022-12-08T03:23:25.176Z,997.73
2022-12-08T03:24:25.334Z,997.73
2022-12-08T03:25:24.366Z,997.70
2022-12-08T03:26:24.312Z,997.71
2022-12-08T03:27:24.303Z,997.74
2022-12-08T03:28:24.303Z,997.71
2022-12-08T03:29:24.422Z,997.68
2022-12-08T03:30:24.301Z,997.69
2022-12-08T03:31:24.359Z,997.61
2022-12-08T03:32:24.271Z,997.59
2022-12-08T03:33:24.449Z,997.66
2022-12-08T03:34:24.271Z,997.59
2022-12-08T03:35:24.260Z,997.57
2022-12-08T03:36:24.589Z,997.59
2022-12-08T03:37:24.300Z,997.50
2022-12-08T03:38:24.240Z,997.55
2022-12-08T03:39:24.293Z,997.49
2022-12-08T03:40:24.250Z,997.51
2022-12-08T03:41:24.213Z,997.47
2022-12-08T03:42:24.871Z,997.42
2022-12-08T03:43:24.638Z,997.43
2022-12-08T03:44:24.226Z,997.44
2022-12-08T03:45:24.190Z,997.43
2022-12-08T03:47:30.870Z,997.42
2022-12-08T03:48:30.467Z,997.43
2022-12-08T03:49:30.204Z,997.42
2022-12-08T03:50:30.207Z,997.38
2022-12-08T03:51:30.370Z,997.40
2022-12-08T03:52:30.198Z,997.39
2022-12-08T03:53:30.176Z,997.37
2022-12-08T03:54:30.166Z,997.41
2022-12-08T03:55:30.158Z,997.38
2022-12-08T03:56:30.166Z,997.40
2022-12-08T03:57:30.996Z,997.37
2022-12-08T03:58:37.068Z,997.32
2022-12-08T03:59:31.016Z,997.32
2022-12-08T04:00:31.024Z,997.29
2022-12-08T04:01:30.281Z,997.25
2022-12-08T04:02:30.206Z,997.30
2022-12-08T04:03:31.074Z,997.31
2022-12-08T04:04:30.966Z,997.25
2022-12-08T04:05:30.094Z,997.30
2022-12-08T04:06:30.295Z,997.25
2022-12-08T04:07:30.084Z,997.20
2022-12-08T04:08:30.113Z,997.21
2022-12-08T04:09:30.158Z,997.26
2022-12-08T04:10:30.304Z,997.23
2022-12-08T04:11:30.111Z,997.26
2022-12-08T04:12:30.054Z,997.19
2022-12-08T04:13:36.882Z,997.16
2022-12-08T04:14:30.382Z,997.18
2022-12-08T04:15:30.422Z,997.12
2022-12-08T04:16:30.521Z,997.13
2022-12-08T04:17:30.518Z,997.15
2022-12-08T04:18:30.560Z,997.14
2022-12-08T04:19:30.000Z,997.13
2022-12-08T04:20:30.001Z,997.11
2022-12-08T04:21:30.707Z,997.11
2022-12-08T04:22:30.300Z,997.05
2022-12-08T04:23:30.040Z,997.06
2022-12-08T04:24:29.980Z,997.11
2022-12-08T04:25:29.969Z,997.04
2022-12-08T04:26:30.036Z,997.00
2022-12-08T04:27:30.800Z,997.04
2022-12-08T04:28:30.964Z,997.07
2022-12-08T04:29:30.867Z,997.05
2022-12-08T04:30:30.677Z,997.01
2022-12-08T04:31:30.368Z,996.99
2022-12-08T04:32:30.195Z,997.02
2022-12-08T04:33:30.736Z,996.99
2022-12-08T04:34:30.923Z,996.99
2022-12-08T04:35:30.385Z,996.98
2022-12-08T04:36:29.899Z,996.95
2022-12-08T04:37:30.810Z,997.01
2022-12-08T04:38:30.255Z,996.91
2022-12-08T04:39:29.976Z,996.88
2022-12-08T04:40:30.833Z,996.88
2022-12-08T04:41:30.374Z,996.89
2022-12-08T04:42:30.905Z,996.86
2022-12-08T04:43:29.904Z,996.87
2022-12-08T04:44:29.903Z,996.88
2022-12-08T04:45:29.832Z,996.90
2022-12-08T04:46:29.924Z,996.84
2022-12-08T04:47:29.902Z,996.83
2022-12-08T04:48:29.941Z,996.89
2022-12-08T04:49:29.980Z,996.85
2022-12-08T04:50:30.021Z,996.91
2022-12-08T04:51:30.073Z,996.92
2022-12-08T04:52:30.120Z,996.93
2022-12-08T04:53:29.801Z,996.92
2022-12-08T04:54:29.899Z,996.93
2022-12-08T04:55:30.260Z,996.89
2022-12-08T04:56:30.323Z,996.94
2022-12-08T04:57:30.361Z,996.89
2022-12-08T04:58:29.751Z,996.88
2022-12-08T04:59:29.739Z,996.90
2022-12-08T05:00:30.129Z,996.85
2022-12-08T05:01:30.590Z,996.82
2022-12-08T05:02:30.456Z,996.81
2022-12-08T05:03:30.637Z,996.84
2022-12-08T05:04:29.758Z,996.79
2022-12-08T05:05:29.867Z,996.85
2022-12-08T05:06:30.637Z,996.84
2022-12-08T05:07:30.787Z,996.83
2022-12-08T05:08:30.747Z,996.83
2022-12-08T05:09:29.677Z,996.78
2022-12-08T05:10:30.515Z,996.77
2022-12-08T05:11:30.674Z,996.78
2022-12-08T05:12:30.585Z,996.73
2022-12-08T05:13:30.475Z,996.73
2022-12-08T05:14:30.645Z,996.81
2022-12-08T05:15:30.184Z,996.74
2022-12-08T05:16:29.869Z,996.78
2022-12-08T05:17:30.604Z,996.72
2022-12-08T05:18:29.644Z,996.77
2022-12-08T05:19:30.673Z,996.79
2022-12-08T05:20:30.575Z,996.82
2022-12-08T05:21:30.382Z,996.77
2022-12-08T05:22:29.744Z,996.82
2022-12-08T05:23:29.596Z,996.77
2022-12-08T05:24:29.596Z,996.78
2022-12-08T05:25:29.562Z,996.80
2022-12-08T05:26:29.576Z,996.75
2022-12-08T05:27:29.611Z,996.70
2022-12-08T05:28:44.838Z,996.70
2022-12-08T05:29:29.684Z,996.70
2022-12-08T05:30:29.597Z,996.74
2022-12-08T05:31:29.579Z,996.68
2022-12-08T05:32:29.537Z,996.63
2022-12-08T05:33:29.510Z,996.55
2022-12-08T05:34:29.511Z,996.70
2022-12-08T05:35:29.499Z,996.65
2022-12-08T05:36:29.588Z,996.61
2022-12-08T05:37:29.508Z,996.64
2022-12-08T05:38:29.508Z,996.58
2022-12-08T05:39:29.479Z,996.59
2022-12-08T05:40:29.476Z,996.61
2022-12-08T05:41:29.463Z,996.61
2022-12-08T05:42:29.734Z,996.57
2022-12-08T05:43:29.474Z,996.57
2022-12-08T05:44:29.568Z,996.52
2022-12-08T05:45:29.486Z,996.59
2022-12-08T05:46:29.454Z,996.55
2022-12-08T05:47:34.457Z,996.53
2022-12-08T05:48:29.444Z,996.57
2022-12-08T05:49:29.776Z,996.51
2022-12-08T05:50:29.406Z,996.55
2022-12-08T05:51:29.832Z,996.56
2022-12-08T05:52:29.846Z,996.54
2022-12-08T05:53:29.390Z,996.57
2022-12-08T05:54:29.387Z,996.50
2022-12-08T05:55:29.364Z,996.50
2022-12-08T05:56:29.363Z,996.54
2022-12-08T05:57:29.407Z,996.49
2022-12-08T05:58:29.369Z,996.51
2022-12-08T05:59:29.362Z,996.41
2022-12-08T06:00:29.372Z,996.43
2022-12-08T06:01:29.351Z,996.45
2022-12-08T06:02:29.503Z,996.41
2022-12-08T06:03:29.439Z,996.38
2022-12-08T06:04:29.338Z,996.35
2022-12-08T06:05:29.567Z,996.42
2022-12-08T06:06:29.301Z,996.41
2022-12-08T06:07:29.662Z,996.43
2022-12-08T06:08:29.765Z,996.42
2022-12-08T06:09:29.279Z,996.34
2022-12-08T06:10:29.449Z,996.34
2022-12-08T06:11:29.258Z,996.39
2022-12-08T06:12:29.258Z,996.40
2022-12-08T06:13:29.278Z,996.37
2022-12-08T06:14:29.276Z,996.43
2022-12-08T06:15:29.251Z,996.41
2022-12-08T06:16:29.423Z,996.39
2022-12-08T06:17:29.311Z,996.32
2022-12-08T06:18:32.744Z,996.27
2022-12-08T06:19:29.222Z,996.24
2022-12-08T06:20:29.216Z,996.27
2022-12-08T06:21:29.218Z,996.31
2022-12-08T06:22:29.209Z,996.39
2022-12-08T06:23:29.197Z,996.34
2022-12-08T06:24:29.195Z,996.32
2022-12-08T06:25:29.286Z,996.33
2022-12-08T06:26:29.383Z,996.32
2022-12-08T06:27:29.163Z,996.38
2022-12-08T06:28:29.185Z,996.42
2022-12-08T06:29:29.155Z,996.39
2022-12-08T06:30:29.349Z,996.29
2022-12-08T06:31:29.458Z,996.34
2022-12-08T06:32:29.330Z,996.35
2022-12-08T06:33:29.384Z,996.35
2022-12-08T06:34:29.125Z,996.31
2022-12-08T06:36:55.207Z,996.28
2022-12-08T06:37:55.102Z,996.30
2022-12-08T06:38:55.099Z,996.29
2022-12-08T06:39:55.093Z,996.33
2022-12-08T06:40:55.203Z,996.35
2022-12-08T06:41:55.244Z,996.30
2022-12-08T06:42:55.313Z,996.28
2022-12-08T06:43:55.335Z,996.35
2022-12-08T06:44:55.020Z,996.27
2022-12-08T06:45:55.475Z,996.27
2022-12-08T06:46:55.026Z,996.29
2022-12-08T06:47:55.194Z,996.29
2022-12-08T06:48:54.993Z,996.26
2022-12-08T06:49:54.993Z,996.29
2022-12-08T06:50:54.982Z,996.26
2022-12-08T06:51:54.993Z,996.33
2022-12-08T06:53:03.062Z,996.33
2022-12-08T06:53:55.601Z,996.31
2022-12-08T06:54:55.426Z,996.30
2022-12-08T06:55:59.662Z,996.28
2022-12-08T06:56:54.947Z,996.26
2022-12-08T06:57:55.071Z,996.26
2022-12-08T06:58:54.939Z,996.29
2022-12-08T06:59:54.948Z,996.30
2022-12-08T07:00:55.148Z,996.28
2022-12-08T07:01:54.975Z,996.30
2022-12-08T07:02:54.981Z,996.31
2022-12-08T07:03:54.918Z,996.34
2022-12-08T07:04:54.899Z,996.29
2022-12-08T07:05:58.913Z,996.29
2022-12-08T07:06:55.000Z,996.25
2022-12-08T07:07:54.952Z,996.26
2022-12-08T07:08:54.973Z,996.29
2022-12-08T07:09:54.876Z,996.31
2022-12-08T07:10:54.868Z,996.27
2022-12-08T07:11:54.846Z,996.27
2022-12-08T07:12:54.846Z,996.37
2022-12-08T07:13:54.967Z,996.32
2022-12-08T07:14:54.835Z,996.27
2022-12-08T07:15:54.836Z,996.27
2022-12-08T07:16:54.965Z,996.32
2022-12-08T07:17:59.636Z,996.26
2022-12-08T07:18:54.824Z,996.32
2022-12-08T07:19:54.801Z,996.26
2022-12-08T07:20:54.903Z,996.32
2022-12-08T07:21:55.034Z,996.38
2022-12-08T07:22:54.799Z,996.32
2022-12-08T07:23:57.860Z,996.35
2022-12-08T07:24:55.083Z,996.38
2022-12-08T07:25:54.762Z,996.35
2022-12-08T07:26:54.765Z,996.36
2022-12-08T07:27:54.763Z,996.35
2022-12-08T07:28:54.761Z,996.38
2022-12-08T07:29:55.149Z,996.38
2022-12-08T07:30:54.761Z,996.39
2022-12-08T07:31:54.728Z,996.45
2022-12-08T07:32:54.728Z,996.45
2022-12-08T07:33:54.728Z,996.40
2022-12-08T07:34:54.711Z,996.38
2022-12-08T07:35:54.690Z,996.39
2022-12-08T07:36:54.689Z,996.38
2022-12-08T07:37:54.688Z,996.34
2022-12-08T07:38:54.699Z,996.32
2022-12-08T07:39:54.677Z,996.36
2022-12-08T07:40:54.691Z,996.32
2022-12-08T07:41:54.779Z,996.33
2022-12-08T07:42:55.298Z,996.37
2022-12-08T07:43:54.665Z,996.34
2022-12-08T07:44:54.645Z,996.30
2022-12-08T07:45:54.690Z,996.33
2022-12-08T07:46:54.646Z,996.31
2022-12-08T07:47:54.626Z,996.31
2022-12-08T07:48:54.645Z,996.34
2022-12-08T07:49:54.608Z,996.34
2022-12-08T07:50:54.895Z,996.36
2022-12-08T07:51:54.634Z,996.34
2022-12-08T07:52:54.675Z,996.31
2022-12-08T07:53:55.277Z,996.27
2022-12-08T07:54:54.584Z,996.23
2022-12-08T07:55:54.606Z,996.29
2022-12-08T07:56:54.643Z,996.35
2022-12-08T07:57:54.685Z,996.33
2022-12-08T07:58:54.733Z,996.33
2022-12-08T07:59:54.766Z,996.38
2022-12-08T08:00:54.665Z,996.32
2022-12-08T08:02:20.960Z,996.33
2022-12-08T08:02:54.970Z,996.32
2022-12-08T08:03:54.804Z,996.26
2022-12-08T08:04:55.594Z,996.38
2022-12-08T08:05:55.038Z,996.36
2022-12-08T08:06:54.512Z,996.30
2022-12-08T08:07:55.163Z,996.34
2022-12-08T08:08:55.196Z,996.29
2022-12-08T08:09:54.920Z,996.28
2022-12-08T08:10:54.619Z,996.33
2022-12-08T08:12:14.719Z,996.29
2022-12-08T08:12:55.418Z,996.28
2022-12-08T08:13:55.409Z,996.28
2022-12-08T08:14:54.551Z,996.33
2022-12-08T08:15:55.595Z,996.27
2022-12-08T08:16:55.488Z,996.27
2022-12-08T08:17:55.320Z,996.29
2022-12-08T08:18:54.429Z,996.35
2022-12-08T08:19:54.966Z,996.39
2022-12-08T08:20:55.277Z,996.30
2022-12-08T08:21:54.416Z,996.41
2022-12-08T08:22:54.578Z,996.39
2022-12-08T08:23:54.399Z,996.40
2022-12-08T08:24:55.418Z,996.34
2022-12-08T08:25:54.384Z,996.41
2022-12-08T08:26:54.384Z,996.39
2022-12-08T08:27:54.367Z,996.39
2022-12-08T08:28:54.373Z,996.38
2022-12-08T08:29:54.466Z,996.38
2022-12-08T08:30:54.407Z,996.41
2022-12-08T08:31:54.500Z,996.44
2022-12-08T08:32:54.347Z,996.36
2022-12-08T08:33:54.358Z,996.43
2022-12-08T08:34:54.343Z,996.39
2022-12-08T08:35:54.321Z,996.52
2022-12-08T08:36:54.381Z,996.48
2022-12-08T08:37:54.492Z,996.53
2022-12-08T08:38:54.310Z,996.42
2022-12-08T08:39:54.610Z,996.53
2022-12-08T08:40:54.621Z,996.49
2022-12-08T08:41:54.654Z,996.48
2022-12-08T08:42:54.280Z,996.48
2022-12-08T08:43:54.521Z,996.46
2022-12-08T08:44:54.291Z,996.47
2022-12-08T08:45:54.313Z,996.45
2022-12-08T08:46:54.345Z,996.38
2022-12-08T08:47:54.240Z,996.50
2022-12-08T08:48:54.239Z,996.46
2022-12-08T08:49:54.241Z,996.43
2022-12-08T08:50:54.231Z,996.48
2022-12-08T08:51:54.220Z,996.50
2022-12-08T08:52:54.249Z,996.48
2022-12-08T08:53:54.779Z,996.52
2022-12-08T08:54:54.681Z,996.47
2022-12-08T08:55:54.218Z,996.52
2022-12-08T08:56:54.207Z,996.46
2022-12-08T08:57:54.828Z,996.54
2022-12-08T08:58:54.180Z,996.58
2022-12-08T08:59:54.859Z,996.55
2022-12-08T09:00:54.346Z,996.53
2022-12-08T09:01:54.915Z,996.54
2022-12-08T09:02:54.285Z,996.51
2022-12-08T09:03:54.149Z,996.52
2022-12-08T09:04:54.301Z,996.54
2022-12-08T09:05:54.192Z,996.53
2022-12-08T09:06:54.135Z,996.50
2022-12-08T09:07:54.639Z,996.59
2022-12-08T09:08:54.973Z,996.55
2022-12-08T09:09:59.945Z,996.61
2022-12-08T09:10:54.165Z,996.58
2022-12-08T09:11:54.175Z,996.53
2022-12-08T09:12:54.103Z,996.52
2022-12-08T09:13:54.092Z,996.54
2022-12-08T09:14:54.077Z,996.57
2022-12-08T09:15:54.149Z,996.58
2022-12-08T09:16:54.083Z,996.52
2022-12-08T09:17:54.808Z,996.55
2022-12-08T09:18:54.053Z,996.57
2022-12-08T09:19:54.052Z,996.57
2022-12-08T09:20:54.136Z,996.62
2022-12-08T09:21:54.042Z,996.57
2022-12-08T09:22:54.130Z,996.62
2022-12-08T09:23:54.024Z,996.56
2022-12-08T09:24:54.160Z,996.59
2022-12-08T09:25:54.090Z,996.51
2022-12-08T09:26:54.168Z,996.59
2022-12-08T09:27:54.083Z,996.60
2022-12-08T09:28:54.003Z,996.59
2022-12-08T09:29:53.986Z,996.54
2022-12-08T09:30:54.050Z,996.56
2022-12-08T09:31:54.063Z,996.65
2022-12-08T09:32:54.237Z,996.62
2022-12-08T09:33:54.150Z,996.60
2022-12-08T09:34:54.283Z,996.66
2022-12-08T09:35:53.959Z,996.62
2022-12-08T09:36:53.936Z,996.65
2022-12-08T09:37:53.928Z,996.68
2022-12-08T09:38:54.326Z,996.63
2022-12-08T09:39:54.345Z,996.59
2022-12-08T09:40:54.355Z,996.60
2022-12-08T09:41:53.907Z,996.63
2022-12-08T09:42:53.903Z,996.67
2022-12-08T09:43:53.893Z,996.65
2022-12-08T09:44:54.498Z,996.67
2022-12-08T09:45:54.504Z,996.62
2022-12-08T09:46:53.946Z,996.67
2022-12-08T09:47:53.875Z,996.71
2022-12-08T09:48:53.872Z,996.64
2022-12-08T09:49:53.883Z,996.59
2022-12-08T09:50:53.954Z,996.63
2022-12-08T09:51:53.843Z,996.61
2022-12-08T09:52:54.086Z,996.57
2022-12-08T09:53:53.829Z,996.60
2022-12-08T09:54:53.833Z,996.61
2022-12-08T09:55:53.833Z,996.60
2022-12-08T09:56:53.810Z,996.60
2022-12-08T09:57:56.462Z,996.55
2022-12-08T09:58:54.320Z,996.63
2022-12-08T09:59:54.328Z,996.59
2022-12-08T10:00:54.431Z,996.61
2022-12-08T10:01:53.968Z,996.62
2022-12-08T10:02:53.888Z,996.63
2022-12-08T10:03:54.249Z,996.66
2022-12-08T10:04:54.669Z,996.64
2022-12-08T10:05:53.900Z,996.71
2022-12-08T10:06:54.578Z,996.63
2022-12-08T10:07:53.922Z,996.70
2022-12-08T10:08:53.917Z,996.64
2022-12-08T10:09:54.012Z,996.57
2022-12-08T10:10:53.849Z,996.65
2022-12-08T10:11:54.317Z,996.66
2022-12-08T10:12:54.417Z,996.71
2022-12-08T10:13:53.717Z,996.68
2022-12-08T10:14:54.576Z,996.65
2022-12-08T10:15:53.823Z,996.63
2022-12-08T10:16:54.471Z,996.64
2022-12-08T10:17:54.485Z,996.64
2022-12-08T10:18:54.146Z,996.59
2022-12-08T10:19:53.974Z,996.62
2022-12-08T10:20:54.533Z,996.61
2022-12-08T10:21:53.858Z,996.62
2022-12-08T10:22:53.896Z,996.61
2022-12-08T10:23:53.953Z,996.62
2022-12-08T10:24:54.048Z,996.61
2022-12-08T10:25:53.661Z,996.60
2022-12-08T10:26:53.723Z,996.58
2022-12-08T10:27:53.712Z,996.60
2022-12-08T10:28:53.753Z,996.54
2022-12-08T10:29:53.801Z,996.57
2022-12-08T10:30:53.999Z,996.53
2022-12-08T10:31:53.698Z,996.49
2022-12-08T10:32:53.949Z,996.51
2022-12-08T10:33:53.991Z,996.52
2022-12-08T10:34:56.398Z,996.53
2022-12-08T10:35:53.779Z,996.51
2022-12-08T10:36:54.135Z,996.52
2022-12-08T10:37:54.171Z,996.45
2022-12-08T10:38:53.578Z,996.44
2022-12-08T10:39:53.552Z,996.46
2022-12-08T10:40:53.547Z,996.38
2022-12-08T10:41:54.358Z,996.39
2022-12-08T10:42:53.568Z,996.42
2022-12-08T10:43:53.579Z,996.44
2022-12-08T10:44:53.544Z,996.42
2022-12-08T10:45:53.604Z,996.43
2022-12-08T10:46:53.651Z,996.42
2022-12-08T10:47:55.472Z,996.43
2022-12-08T10:48:53.564Z,996.40
2022-12-08T10:49:53.495Z,996.39
2022-12-08T10:50:53.715Z,996.39
2022-12-08T10:51:53.717Z,996.39
2022-12-08T10:52:53.725Z,996.42
2022-12-08T10:53:54.926Z,996.44
2022-12-08T10:54:53.585Z,996.39
2022-12-08T10:55:53.663Z,996.35
2022-12-08T10:56:53.717Z,996.41
2022-12-08T10:57:53.764Z,996.36
2022-12-08T10:58:53.784Z,996.38
2022-12-08T10:59:53.452Z,996.35
2022-12-08T11:00:53.569Z,996.29
2022-12-08T11:01:53.531Z,996.31
2022-12-08T11:02:53.522Z,996.30
2022-12-08T11:03:53.452Z,996.31
2022-12-08T11:04:53.392Z,996.33
2022-12-08T11:05:53.438Z,996.28
2022-12-08T11:06:53.420Z,996.29
2022-12-08T11:07:53.644Z,996.30
2022-12-08T11:08:53.366Z,996.34
2022-12-08T11:09:53.349Z,996.30
2022-12-08T11:10:53.359Z,996.29
2022-12-08T11:11:53.329Z,996.29
2022-12-08T11:12:53.357Z,996.33
2022-12-08T11:13:53.319Z,996.25
2022-12-08T11:14:53.320Z,996.27
2022-12-08T11:15:53.427Z,996.32
2022-12-08T11:16:53.377Z,996.34
2022-12-08T11:17:57.628Z,996.29
2022-12-08T11:18:53.554Z,996.31
2022-12-08T11:19:53.957Z,996.28
2022-12-08T11:20:53.295Z,996.27
2022-12-08T11:21:53.278Z,996.24
2022-12-08T11:22:53.288Z,996.25
2022-12-08T11:23:53.267Z,996.21
2022-12-08T11:24:53.255Z,996.24
2022-12-08T11:25:53.254Z,996.23
2022-12-08T11:26:53.245Z,996.25
2022-12-08T11:27:53.515Z,996.21
2022-12-08T11:28:53.225Z,996.25
2022-12-08T11:29:53.225Z,996.18
2022-12-08T11:30:53.222Z,996.19
2022-12-08T11:31:53.344Z,996.18
2022-12-08T11:32:53.216Z,996.18
2022-12-08T11:33:53.204Z,996.24
2022-12-08T11:34:53.190Z,996.15
2022-12-08T11:35:53.215Z,996.16
2022-12-08T11:36:53.181Z,996.14
2022-12-08T11:37:56.540Z,996.14
2022-12-08T11:38:53.222Z,996.14
2022-12-08T11:39:53.374Z,996.14
2022-12-08T11:40:53.152Z,996.14
2022-12-08T11:41:53.153Z,996.16
2022-12-08T11:42:53.211Z,996.14
2022-12-08T11:43:53.132Z,996.00
2022-12-08T11:44:53.133Z,996.05
2022-12-08T11:45:53.180Z,996.03
2022-12-08T11:46:53.117Z,996.00
2022-12-08T11:47:55.951Z,996.07
2022-12-08T11:48:53.103Z,996.04
2022-12-08T11:49:53.112Z,996.11
2022-12-08T11:50:53.089Z,996.10
2022-12-08T11:51:53.359Z,996.12
2022-12-08T11:52:53.089Z,996.15
2022-12-08T11:53:53.077Z,996.15
2022-12-08T11:54:53.077Z,996.14
2022-12-08T11:55:53.065Z,996.15
2022-12-08T11:56:53.061Z,996.17
2022-12-08T11:57:53.151Z,996.10
2022-12-08T11:58:53.070Z,996.15
2022-12-08T11:59:53.054Z,996.10
2022-12-08T12:00:53.025Z,996.09
2022-12-08T12:01:53.039Z,996.13
2022-12-08T12:02:53.066Z,996.10
2022-12-08T12:03:53.029Z,996.09
2022-12-08T12:04:53.054Z,996.15
2022-12-08T12:06:55.427Z,996.10
2022-12-08T12:07:53.073Z,996.11
2022-12-08T12:08:52.974Z,996.11
2022-12-08T12:09:52.976Z,996.10
2022-12-08T12:10:53.772Z,996.12
2022-12-08T12:11:53.783Z,996.05
2022-12-08T12:12:53.180Z,996.04
2022-12-08T12:13:53.802Z,996.10
2022-12-08T12:14:53.500Z,996.13
2022-12-08T12:15:53.832Z,996.06
2022-12-08T12:16:53.690Z,996.10
2022-12-08T12:17:52.930Z,996.12
2022-12-08T12:18:53.069Z,996.07
2022-12-08T12:19:52.980Z,996.10
2022-12-08T12:20:52.910Z,996.10
2022-12-08T12:21:52.931Z,996.09
2022-12-08T12:22:52.970Z,996.07
2022-12-08T12:23:53.027Z,996.13
2022-12-08T12:24:53.048Z,996.11
2022-12-08T12:25:53.009Z,996.08
2022-12-08T12:26:53.151Z,996.06
2022-12-08T12:27:57.298Z,996.11
2022-12-08T12:28:52.886Z,996.08
2022-12-08T12:29:55.946Z,996.04
2022-12-08T12:30:52.951Z,996.01
2022-12-08T12:31:53.380Z,996.08
2022-12-08T12:32:53.417Z,996.06
2022-12-08T12:33:52.907Z,996.04